PWSweather.com
Personal Weather Stations
Station Observations
OBERT
Bodensee Hinterland, OberteuringenDE

Bodensee HinterlandOberteuringenDE

Lat: 47.714675, Lon: 9.44447

Elevation: 1427

Station Type: Wunder Weather Station

High Low Average
Temperature 53.0°F11.7°C 37.5°F3.1°C 46.6°F8.1°C
Dew Point 52.3°F11.3°C 37.5°F3.1°C 46.3°F7.9°C
Winds 3.6 mph 5.8 kmh Calm Calm 1.0 mph SSE1.6 kmh SSE
Wind Gusts 10.3 mph16.6 kmh -- 2.0 mph3.2 kmh
Humidity 100% 86% 99%
Pressure 29.56 in1001.0 mb 29.50 in999.0 mb -
Precipitation 0.00 in0.0 mm - -
Hour Temp Dew Point Humidity Winds Wind Gusts Pressure Precip Precip Rate Daily Precip Total
12:09 AM 46.5°F8.1°C 46.5°F8.1°C 100% 2.0 mph 3.2 kmh 10.3 mph16.6 kmh 29.53 in1000.0 mb 0.00 in0.0 mm 0.00 in0.0 mm 0.00 in0.0 mm
12:39 AM 46.2°F7.9°C 46.2°F7.9°C 100% Calm Calm 2.5 mph4.0 kmh 29.53 in1000.0 mb 0.00 in0.0 mm 0.00 in0.0 mm 0.00 in0.0 mm
01:09 AM 45.8°F7.7°C 45.8°F7.7°C 100% Calm Calm -- 29.54 in1000.3 mb 0.00 in0.0 mm 0.00 in0.0 mm 0.00 in0.0 mm
01:39 AM 45.8°F7.7°C 45.8°F7.7°C 100% Calm Calm -- 29.54 in1000.3 mb 0.00 in0.0 mm 0.00 in0.0 mm 0.00 in0.0 mm
02:09 AM 45.8°F7.7°C 45.8°F7.7°C 100% Calm Calm -- 29.54 in1000.3 mb 0.00 in0.0 mm 0.00 in0.0 mm 0.00 in0.0 mm
02:39 AM 46.0°F7.8°C 46.0°F7.8°C 100% Calm Calm -- 29.52 in999.7 mb 0.00 in0.0 mm 0.00 in0.0 mm 0.00 in0.0 mm
03:09 AM 45.6°F7.6°C 45.6°F7.6°C 100% Calm Calm -- 29.51 in999.3 mb 0.00 in0.0 mm 0.00 in0.0 mm 0.00 in0.0 mm
03:39 AM 45.6°F7.6°C 45.6°F7.6°C 100% Calm Calm -- 29.51 in999.3 mb 0.00 in0.0 mm 0.00 in0.0 mm 0.00 in0.0 mm
04:09 AM 45.6°F7.6°C 45.6°F7.6°C 100% Calm Calm -- 29.52 in999.7 mb 0.00 in0.0 mm 0.00 in0.0 mm 0.00 in0.0 mm
04:39 AM 45.5°F7.5°C 45.5°F7.5°C 100% Calm Calm -- 29.51 in999.3 mb 0.00 in0.0 mm 0.00 in0.0 mm 0.00 in0.0 mm
05:09 AM 44.4°F6.9°C 44.4°F6.9°C 100% Calm Calm 2.5 mph4.0 kmh 29.50 in999.0 mb 0.00 in0.0 mm 0.00 in0.0 mm 0.00 in0.0 mm
05:39 AM 44.2°F6.8°C 44.2°F6.8°C 100% Calm Calm -- 29.51 in999.3 mb 0.00 in0.0 mm 0.00 in0.0 mm 0.00 in0.0 mm
06:09 AM 44.2°F6.8°C 44.2°F6.8°C 100% Calm Calm -- 29.50 in999.0 mb 0.00 in0.0 mm 0.00 in0.0 mm 0.00 in0.0 mm
06:39 AM 44.4°F6.9°C 44.4°F6.9°C 100% 0.4 mph ENE0.6 kmh ENE 1.5 mph2.4 kmh 29.51 in999.3 mb 0.00 in0.0 mm 0.00 in0.0 mm 0.00 in0.0 mm
07:09 AM 44.2°F6.8°C 44.2°F6.8°C 100% Calm Calm -- 29.51 in999.3 mb 0.00 in0.0 mm 0.00 in0.0 mm 0.00 in0.0 mm
07:39 AM 44.7°F7.1°C 44.7°F7.1°C 100% Calm Calm -- 29.51 in999.3 mb 0.00 in0.0 mm 0.00 in0.0 mm 0.00 in0.0 mm
08:09 AM 44.9°F7.2°C 44.9°F7.2°C 100% Calm Calm 0.3 mph0.5 kmh 29.52 in999.7 mb 0.00 in0.0 mm 0.00 in0.0 mm 0.00 in0.0 mm
08:39 AM 46.0°F7.8°C 46.0°F7.8°C 100% Calm Calm -- 29.53 in1000.0 mb 0.00 in0.0 mm 0.00 in0.0 mm 0.00 in0.0 mm
09:09 AM 47.8°F8.8°C 47.8°F8.8°C 100% Calm Calm -- 29.54 in1000.3 mb 0.00 in0.0 mm 0.00 in0.0 mm 0.00 in0.0 mm
09:39 AM 48.7°F9.3°C 48.7°F9.3°C 100% Calm Calm -- 29.54 in1000.3 mb 0.00 in0.0 mm 0.00 in0.0 mm 0.00 in0.0 mm
10:09 AM 49.8°F9.9°C 49.8°F9.9°C 100% Calm Calm -- 29.53 in1000.0 mb 0.00 in0.0 mm 0.00 in0.0 mm 0.00 in0.0 mm
10:39 AM 49.8°F9.9°C 49.8°F9.9°C 100% 2.5 mph WNW4.0 kmh WNW 5.6 mph9.0 kmh 29.53 in1000.0 mb 0.00 in0.0 mm 0.00 in0.0 mm 0.00 in0.0 mm
11:09 AM 52.3°F11.3°C 52.3°F11.3°C 100% 0.9 mph NW1.4 kmh NW 6.5 mph10.5 kmh 29.53 in1000.0 mb 0.00 in0.0 mm 0.00 in0.0 mm 0.00 in0.0 mm
11:39 AM 51.0°F10.6°C 50.7°F10.4°C 98% 1.5 mph WSW2.4 kmh WSW 3.4 mph5.5 kmh 29.53 in1000.0 mb 0.00 in0.0 mm 0.00 in0.0 mm 0.00 in0.0 mm
12:09 PM 50.7°F10.4°C 50.7°F10.4°C 99% 1.1 mph WSW1.8 kmh WSW 4.3 mph6.9 kmh 29.53 in1000.0 mb 0.00 in0.0 mm 0.00 in0.0 mm 0.00 in0.0 mm
12:39 PM 50.3°F10.2°C 50.3°F10.2°C 100% 3.3 mph WNW5.3 kmh WNW 5.6 mph9.0 kmh 29.52 in999.7 mb 0.00 in0.0 mm 0.00 in0.0 mm 0.00 in0.0 mm
01:09 PM 51.9°F11.1°C 50.1°F10.1°C 93% 2.4 mph WNW3.9 kmh WNW 5.6 mph9.0 kmh 29.51 in999.3 mb 0.00 in0.0 mm 0.00 in0.0 mm 0.00 in0.0 mm
01:39 PM 51.0°F10.6°C 50.9°F10.5°C 99% 1.7 mph NW2.7 kmh NW 5.0 mph8.0 kmh 29.51 in999.3 mb 0.00 in0.0 mm 0.00 in0.0 mm 0.00 in0.0 mm
02:09 PM 51.4°F10.8°C 50.6°F10.3°C 96% 3.6 mph W5.8 kmh W 5.3 mph8.5 kmh 29.51 in999.3 mb 0.00 in0.0 mm 0.00 in0.0 mm 0.00 in0.0 mm
02:39 PM 51.6°F10.9°C 50.5°F10.3°C 96% 1.2 mph WNW1.9 kmh WNW 5.0 mph8.0 kmh 29.50 in999.0 mb 0.00 in0.0 mm 0.00 in0.0 mm 0.00 in0.0 mm
03:09 PM 53.0°F11.7°C 49.1°F9.5°C 86% 3.1 mph WNW5.0 kmh WNW 5.6 mph9.0 kmh 29.51 in999.3 mb 0.00 in0.0 mm 0.00 in0.0 mm 0.00 in0.0 mm
03:21 PM 53.0°F11.7°C 50.3°F10.2°C 90% Calm Calm 7.1 mph11.4 kmh 29.51 in999.3 mb 0.00 in0.0 mm 0.00 in0.0 mm 0.00 in0.0 mm
03:51 PM 51.0°F10.6°C 48.5°F9.2°C 91% Calm Calm 3.7 mph6.0 kmh 29.51 in999.3 mb 0.00 in0.0 mm 0.00 in0.0 mm 0.00 in0.0 mm
04:21 PM 50.0°F10.0°C 47.5°F8.6°C 91% Calm Calm -- 29.51 in999.3 mb 0.00 in0.0 mm 0.00 in0.0 mm 0.00 in0.0 mm
04:51 PM 46.4°F8.0°C 46.2°F7.9°C 99% 0.7 mph ESE1.1 kmh ESE 1.5 mph2.4 kmh 29.50 in999.0 mb 0.00 in0.0 mm 0.00 in0.0 mm 0.00 in0.0 mm
05:21 PM 45.1°F7.3°C 45.1°F7.3°C 100% Calm Calm 1.2 mph1.9 kmh 29.50 in999.0 mb 0.00 in0.0 mm 0.00 in0.0 mm 0.00 in0.0 mm
06:21 PM 44.7°F7.1°C 44.7°F7.1°C 100% 0.9 mph N1.4 kmh N 2.5 mph4.0 kmh 29.53 in1000.0 mb 0.00 in0.0 mm 0.00 in0.0 mm 0.00 in0.0 mm
06:51 PM 45.1°F7.3°C 45.1°F7.3°C 100% Calm Calm -- 29.54 in1000.3 mb 0.00 in0.0 mm 0.00 in0.0 mm 0.00 in0.0 mm
07:21 PM 44.9°F7.2°C 44.9°F7.2°C 100% Calm Calm -- 29.53 in1000.0 mb 0.00 in0.0 mm 0.00 in0.0 mm 0.00 in0.0 mm
07:51 PM 45.1°F7.3°C 45.1°F7.3°C 100% Calm Calm -- 29.54 in1000.3 mb 0.00 in0.0 mm 0.00 in0.0 mm 0.00 in0.0 mm
08:21 PM 44.9°F7.2°C 44.9°F7.2°C 100% Calm Calm -- 29.54 in1000.3 mb 0.00 in0.0 mm 0.00 in0.0 mm 0.00 in0.0 mm
08:51 PM 44.6°F7.0°C 44.6°F7.0°C 100% Calm Calm -- 29.55 in1000.7 mb 0.00 in0.0 mm 0.00 in0.0 mm 0.00 in0.0 mm
09:21 PM 44.2°F6.8°C 44.2°F6.8°C 100% Calm Calm -- 29.55 in1000.7 mb 0.00 in0.0 mm 0.00 in0.0 mm 0.00 in0.0 mm
09:51 PM 42.6°F5.9°C 42.6°F5.9°C 100% Calm Calm -- 29.55 in1000.7 mb 0.00 in0.0 mm 0.00 in0.0 mm 0.00 in0.0 mm
10:21 PM 42.2°F5.7°C 42.2°F5.7°C 100% Calm Calm -- 29.55 in1000.7 mb 0.00 in0.0 mm 0.00 in0.0 mm 0.00 in0.0 mm
10:51 PM 40.8°F4.9°C 40.8°F4.9°C 100% Calm Calm -- 29.55 in1000.7 mb 0.00 in0.0 mm 0.00 in0.0 mm 0.00 in0.0 mm
11:21 PM 39.2°F4.0°C 39.2°F4.0°C 100% Calm Calm -- 29.56 in1001.0 mb 0.00 in0.0 mm 0.00 in0.0 mm 0.00 in0.0 mm
11:51 PM 37.5°F3.1°C 37.5°F3.1°C 100% Calm Calm -- 29.56 in1001.0 mb 0.00 in0.0 mm 0.00 in0.0 mm 0.00 in0.0 mm